createdAt,value
2017-09-01T00:00:50.665Z,1.90
2017-09-01T00:03:18.507Z,2.42
2017-09-01T00:05:45.991Z,2.13
2017-09-01T00:08:13.484Z,2.03
2017-09-01T00:10:40.975Z,2.20
2017-09-01T00:13:08.454Z,1.93
2017-09-01T00:15:35.943Z,2.10
2017-09-01T00:18:04.429Z,2.30
2017-09-01T00:20:31.948Z,2.27
2017-09-01T00:22:59.422Z,2.50
2017-09-01T00:25:27.603Z,2.30
2017-09-01T00:27:55.091Z,2.50
2017-09-01T00:30:22.596Z,2.27
2017-09-01T00:32:50.058Z,2.50
2017-09-01T00:35:17.546Z,2.20
2017-09-01T00:37:45.014Z,2.40
2017-09-01T00:40:12.507Z,2.30
2017-09-01T00:42:39.993Z,2.37
2017-09-01T00:45:07.449Z,2.17
2017-09-01T00:47:34.936Z,2.03
2017-09-01T00:50:02.391Z,2.13
2017-09-01T00:52:29.881Z,1.97
2017-09-01T00:54:57.367Z,2.70
2017-09-01T00:57:24.835Z,2.30
2017-09-01T00:59:52.326Z,2.30
2017-09-01T01:02:19.788Z,2.20
2017-09-01T01:04:47.279Z,2.20
2017-09-01T01:07:14.735Z,2.40
2017-09-01T01:09:42.257Z,2.10
2017-09-01T01:12:09.713Z,2.62
2017-09-01T01:14:37.154Z,2.33
2017-09-01T01:17:05.054Z,2.50
2017-09-01T01:19:32.545Z,2.60
2017-09-01T01:22:00.043Z,2.47
2017-09-01T01:24:27.503Z,2.47
2017-09-01T01:26:55.015Z,2.70
2017-09-01T01:29:22.495Z,2.50
2017-09-01T01:31:50.023Z,2.87
2017-09-01T01:34:17.496Z,2.60
2017-09-01T01:36:44.969Z,2.83
2017-09-01T01:39:12.470Z,2.47
2017-09-01T01:41:39.942Z,2.50
2017-09-01T01:44:07.438Z,2.40
2017-09-01T01:46:34.900Z,2.00
2017-09-01T01:49:02.381Z,2.23
2017-09-01T01:51:29.837Z,2.43
2017-09-01T01:53:57.672Z,2.22
2017-09-01T01:56:25.143Z,2.33
2017-09-01T01:58:52.615Z,2.50
2017-09-01T02:01:20.087Z,2.90
2017-09-01T02:03:47.555Z,2.53
2017-09-01T02:06:15.043Z,2.25
2017-09-01T02:08:42.512Z,2.20
2017-09-01T02:11:10.007Z,2.60
2017-09-01T02:13:37.778Z,2.63
2017-09-01T02:16:05.254Z,2.00
2017-09-01T02:18:32.762Z,2.33
2017-09-01T02:21:00.258Z,3.03
2017-09-01T02:23:27.728Z,2.53
2017-09-01T02:25:55.186Z,2.30
2017-09-01T02:28:22.665Z,2.50
2017-09-01T02:30:50.135Z,2.40
2017-09-01T02:33:17.618Z,2.50
2017-09-01T02:35:45.123Z,2.70
2017-09-01T02:38:12.594Z,3.17
2017-09-01T02:40:40.105Z,2.80
2017-09-01T02:43:07.582Z,3.20
2017-09-01T02:45:35.043Z,3.13
2017-09-01T02:48:03.076Z,3.03
2017-09-01T02:50:30.574Z,3.07
2017-09-01T02:52:58.036Z,3.80
2017-09-01T02:55:25.533Z,4.20
2017-09-01T02:57:53.007Z,4.97
2017-09-01T03:00:20.507Z,4.82
2017-09-01T03:02:47.997Z,4.77
2017-09-01T03:05:15.473Z,4.70
2017-09-01T03:07:42.997Z,4.40
2017-09-01T03:10:10.483Z,4.25
2017-09-01T03:12:37.976Z,4.63
2017-09-01T03:15:05.431Z,5.20
2017-09-01T03:17:33.021Z,4.57
2017-09-01T03:20:00.520Z,3.87
2017-09-01T03:22:28.022Z,5.60
2017-09-01T03:24:55.491Z,5.30
2017-09-01T03:27:23.079Z,5.62
2017-09-01T03:29:50.551Z,5.90
2017-09-01T03:32:18.014Z,5.97
2017-09-01T03:34:45.560Z,6.20
2017-09-01T03:37:13.034Z,6.70
2017-09-01T03:39:40.570Z,6.87
2017-09-01T03:42:08.043Z,6.80
2017-09-01T03:44:35.529Z,6.63
2017-09-01T03:47:02.987Z,6.20
2017-09-01T03:49:30.506Z,7.60
2017-09-01T03:51:57.979Z,7.37
2017-09-01T03:54:25.477Z,7.70
2017-09-01T03:56:52.933Z,6.83
2017-09-01T03:59:20.415Z,6.85
2017-09-01T04:01:47.892Z,6.70
2017-09-01T04:04:15.377Z,7.20
2017-09-01T04:06:42.866Z,7.20
2017-09-01T04:09:10.319Z,7.47
2017-09-01T04:11:37.835Z,7.50
2017-09-01T04:14:05.624Z,6.53
2017-09-01T04:16:33.127Z,6.73
2017-09-01T04:19:00.601Z,7.77
2017-09-01T04:21:28.084Z,6.97
2017-09-01T04:23:55.558Z,7.83
2017-09-01T04:26:23.069Z,7.47
2017-09-01T04:28:50.553Z,6.93
2017-09-01T04:31:18.013Z,7.00
2017-09-01T04:33:45.536Z,7.60
2017-09-01T04:36:13.027Z,7.72
2017-09-01T04:38:40.518Z,7.45
2017-09-01T04:41:07.972Z,7.13
2017-09-01T04:43:35.437Z,7.37
2017-09-01T04:46:02.925Z,6.50
2017-09-01T04:48:30.398Z,5.70
2017-09-01T04:50:57.898Z,6.00
2017-09-01T04:53:25.387Z,6.73
2017-09-01T04:55:52.949Z,5.93
2017-09-01T04:58:20.402Z,6.18
2017-09-01T05:00:47.922Z,6.30
2017-09-01T05:03:15.377Z,6.77
2017-09-01T05:05:42.886Z,6.43
2017-09-01T05:08:10.354Z,6.50
2017-09-01T05:10:37.956Z,6.50
2017-09-01T05:13:05.416Z,7.13
2017-09-01T05:15:32.888Z,6.97
2017-09-01T05:18:00.392Z,6.73
2017-09-01T05:20:27.846Z,6.80
2017-09-01T05:22:55.340Z,7.55
2017-09-01T05:25:22.859Z,7.70
2017-09-01T05:27:50.371Z,7.67
2017-09-01T05:30:18.060Z,7.28
2017-09-01T05:32:45.559Z,5.80
2017-09-01T05:35:13.020Z,6.57
2017-09-01T05:37:40.501Z,7.67
2017-09-01T05:40:08.043Z,7.73
2017-09-01T05:42:35.517Z,7.13
2017-09-01T05:45:03.028Z,8.07
2017-09-01T05:47:30.515Z,7.90
2017-09-01T05:49:58.013Z,7.53
2017-09-01T05:52:25.598Z,8.13
2017-09-01T05:54:53.097Z,7.90
2017-09-01T05:57:20.639Z,9.15
2017-09-01T05:59:48.162Z,8.50
2017-09-01T06:02:15.683Z,8.20
2017-09-01T06:04:43.163Z,8.70
2017-09-01T06:07:10.651Z,9.23
2017-09-01T06:09:38.174Z,8.37
2017-09-01T06:12:06.639Z,6.20
2017-09-01T06:14:34.092Z,5.80
2017-09-01T06:17:01.586Z,6.43
2017-09-01T06:19:29.171Z,5.80
2017-09-01T06:21:56.669Z,5.80
2017-09-01T06:24:24.188Z,5.10
2017-09-01T06:26:51.747Z,4.80
2017-09-01T06:29:19.250Z,5.10
2017-09-01T06:31:46.726Z,5.70
2017-09-01T06:34:14.225Z,5.97
2017-09-01T06:36:41.718Z,5.13
2017-09-01T06:39:09.243Z,5.30
2017-09-01T06:41:36.706Z,4.90
2017-09-01T06:44:04.699Z,5.00
2017-09-01T06:46:32.178Z,5.10
2017-09-01T06:48:59.678Z,5.30
2017-09-01T06:51:27.191Z,5.73
2017-09-01T06:53:54.681Z,5.20
2017-09-01T06:56:22.184Z,4.87
2017-09-01T06:58:49.664Z,20.13
2017-09-01T07:01:17.164Z,4.90
2017-09-01T07:03:44.692Z,5.97
2017-09-01T07:06:12.169Z,5.10
2017-09-01T07:08:39.660Z,4.80
2017-09-01T07:11:07.163Z,5.13
2017-09-01T07:13:34.647Z,5.27
2017-09-01T07:16:02.120Z,5.70
2017-09-01T07:18:29.605Z,6.10
2017-09-01T07:20:57.129Z,5.53
2017-09-01T07:23:24.666Z,6.43
2017-09-01T07:25:52.187Z,6.33
2017-09-01T07:28:20.579Z,6.23
2017-09-01T07:30:48.214Z,6.73
2017-09-01T07:33:15.747Z,6.53
2017-09-01T07:35:43.243Z,6.60
2017-09-01T07:38:10.749Z,6.78
2017-09-01T07:40:38.214Z,7.32
2017-09-01T07:43:05.730Z,7.30
2017-09-01T07:45:33.257Z,6.60
2017-09-01T07:48:01.078Z,6.30
2017-09-01T07:50:28.597Z,6.00
2017-09-01T07:52:56.078Z,6.37
2017-09-01T07:55:23.547Z,7.60
2017-09-01T07:57:51.042Z,6.87
2017-09-01T08:00:18.537Z,7.90
2017-09-01T08:02:46.327Z,7.60
2017-09-01T08:05:13.815Z,7.80
2017-09-01T08:07:41.331Z,8.07
2017-09-01T08:10:08.803Z,7.90
2017-09-01T08:12:36.299Z,7.50
2017-09-01T08:15:04.784Z,8.55
2017-09-01T08:17:32.282Z,8.67
2017-09-01T08:20:00.477Z,7.83
2017-09-01T08:22:28.022Z,7.67
2017-09-01T08:24:55.527Z,8.70
2017-09-01T08:27:28.464Z,9.13
2017-09-01T08:29:55.964Z,9.70
2017-09-01T08:32:24.079Z,8.90
2017-09-01T08:34:51.619Z,9.57
2017-09-01T08:37:19.097Z,10.13
2017-09-01T08:39:46.696Z,11.13
2017-09-01T08:42:14.224Z,11.80
2017-09-01T08:44:41.756Z,11.10
2017-09-01T08:47:09.328Z,11.43
2017-09-01T08:49:36.846Z,11.83
2017-09-01T08:52:05.441Z,12.00
2017-09-01T08:54:32.984Z,13.23
2017-09-01T08:57:00.535Z,12.40
2017-09-01T08:59:28.068Z,13.20
2017-09-01T09:01:55.624Z,13.05
2017-09-01T09:04:23.115Z,14.75
2017-09-01T09:06:50.655Z,13.27
2017-09-01T09:09:18.160Z,13.32
2017-09-01T09:11:46.039Z,15.40
2017-09-01T09:14:13.535Z,13.73
2017-09-01T09:16:41.011Z,12.93
2017-09-01T09:19:08.572Z,15.07
2017-09-01T09:21:36.112Z,13.93
2017-09-01T09:24:04.498Z,13.25
2017-09-01T09:26:31.967Z,14.67
2017-09-01T09:28:59.479Z,12.83
2017-09-01T09:31:26.991Z,14.20
2017-09-01T09:33:54.490Z,15.07
2017-09-01T09:36:22.099Z,12.55
2017-09-01T09:38:49.648Z,12.70
2017-09-01T09:41:17.111Z,12.02
2017-09-01T09:43:44.608Z,12.90
2017-09-01T09:46:12.128Z,14.90
2017-09-01T09:48:39.598Z,14.10
2017-09-01T09:51:07.111Z,13.43
2017-09-01T09:53:34.614Z,14.97
2017-09-01T09:56:02.148Z,14.30
2017-09-01T09:58:29.757Z,13.30
2017-09-01T10:00:57.274Z,13.90
2017-09-01T10:03:24.762Z,12.50
2017-09-01T10:05:52.305Z,14.77
2017-09-01T10:08:19.806Z,13.67
2017-09-01T10:10:47.313Z,14.30
2017-09-01T10:13:14.790Z,14.40
2017-09-01T10:15:42.295Z,12.57
2017-09-01T10:18:09.790Z,11.53
2017-09-01T10:20:37.308Z,11.30
2017-09-01T10:23:04.882Z,12.20
2017-09-01T10:25:33.266Z,11.70
2017-09-01T10:28:00.779Z,10.20
2017-09-01T10:30:28.267Z,11.57
2017-09-01T10:32:55.777Z,12.93
2017-09-01T10:35:23.334Z,10.40
2017-09-01T10:37:50.877Z,10.40
2017-09-01T10:40:18.365Z,10.32
2017-09-01T10:42:45.957Z,11.87
2017-09-01T10:45:13.489Z,10.98
2017-09-01T10:47:52.860Z,9.10
2017-09-01T10:50:31.899Z,11.00
2017-09-01T10:53:11.235Z,9.90
2017-09-01T10:55:50.410Z,9.10
2017-09-01T10:58:25.762Z,9.38
2017-09-01T11:00:53.294Z,9.13
2017-09-01T11:03:20.820Z,10.27
2017-09-01T11:05:49.830Z,11.70
2017-09-01T11:08:17.301Z,11.35
2017-09-01T11:10:44.858Z,10.63
2017-09-01T11:13:12.361Z,9.20
2017-09-01T11:15:39.900Z,9.27
2017-09-01T11:18:07.397Z,9.13
2017-09-01T11:23:49.742Z,7.10
2017-09-01T11:26:18.223Z,8.00
2017-09-01T11:28:45.752Z,5.77
2017-09-01T11:31:13.276Z,4.85
2017-09-01T11:33:40.778Z,4.00
2017-09-01T11:36:08.323Z,5.60
2017-09-01T11:38:35.875Z,5.70
2017-09-01T11:41:04.390Z,3.80
2017-09-01T11:43:31.873Z,4.70
2017-09-01T11:45:59.349Z,5.03
2017-09-01T11:48:26.830Z,4.00
2017-09-01T11:50:54.312Z,4.57
2017-09-01T11:53:21.832Z,4.45
2017-09-01T11:55:49.318Z,4.25
2017-09-01T11:58:16.873Z,4.43
2017-09-01T12:00:44.358Z,4.40
2017-09-01T12:03:12.440Z,4.18
2017-09-01T12:05:39.920Z,3.92
2017-09-01T12:08:08.127Z,4.57
2017-09-01T12:10:35.594Z,4.13
2017-09-01T12:13:03.112Z,4.23
2017-09-01T12:15:30.606Z,4.40
2017-09-01T12:17:58.071Z,3.90
2017-09-01T12:20:25.542Z,3.50
2017-09-01T12:22:53.052Z,3.03
2017-09-01T12:25:20.531Z,3.27
2017-09-01T12:27:48.021Z,4.47
2017-09-01T12:30:16.777Z,4.22
2017-09-01T12:32:44.265Z,3.27
2017-09-01T12:35:11.805Z,3.37
2017-09-01T12:37:39.321Z,12.40
2017-09-01T12:40:06.885Z,3.67
2017-09-01T12:42:34.361Z,3.43
2017-09-01T12:45:01.869Z,3.53
2017-09-01T12:47:29.357Z,3.70
2017-09-01T12:49:56.928Z,4.13
2017-09-01T12:52:25.362Z,3.47
2017-09-01T12:54:52.866Z,3.43
2017-09-01T12:57:21.283Z,3.62
2017-09-01T12:59:48.843Z,4.23
2017-09-01T13:02:16.361Z,3.90
2017-09-01T13:04:43.883Z,3.10
2017-09-01T13:07:11.392Z,3.62
2017-09-01T13:09:38.913Z,3.23
2017-09-01T13:12:06.455Z,3.77
2017-09-01T13:14:34.265Z,4.13
2017-09-01T13:17:01.841Z,3.17
2017-09-01T13:19:29.344Z,3.30
2017-09-01T13:21:56.893Z,3.23
2017-09-01T13:24:24.419Z,3.30
2017-09-01T13:26:51.897Z,3.50
2017-09-01T13:29:19.390Z,4.07
2017-09-01T13:31:46.879Z,4.47
2017-09-01T13:34:14.375Z,4.40
2017-09-01T13:36:41.864Z,3.57
2017-09-01T13:39:09.404Z,3.20
2017-09-01T13:41:36.878Z,3.43
2017-09-01T13:44:04.375Z,3.58
2017-09-01T13:46:31.851Z,3.20
2017-09-01T13:48:59.356Z,4.40
2017-09-01T13:51:27.801Z,5.67
2017-09-01T13:53:55.318Z,4.03
2017-09-01T13:56:22.780Z,4.70
2017-09-01T13:58:50.325Z,4.83
2017-09-01T14:01:17.814Z,3.83
2017-09-01T14:03:45.292Z,3.67
2017-09-01T14:06:12.792Z,4.28
2017-09-01T14:08:40.285Z,4.50
2017-09-01T14:11:07.791Z,5.30
2017-09-01T14:13:35.297Z,3.50
2017-09-01T14:16:02.838Z,3.73
2017-09-01T14:18:30.325Z,3.87
2017-09-01T14:20:57.821Z,3.23
2017-09-01T14:23:25.317Z,4.23
2017-09-01T14:25:52.821Z,3.50
2017-09-01T14:28:20.307Z,3.55
2017-09-01T14:30:47.791Z,3.37
2017-09-01T14:33:15.297Z,3.30
2017-09-01T14:35:42.897Z,3.90
2017-09-01T14:38:10.373Z,4.10
2017-09-01T14:40:37.937Z,3.77
2017-09-01T14:43:05.415Z,3.30
2017-09-01T14:45:32.923Z,3.10
2017-09-01T14:48:00.391Z,3.23
2017-09-01T14:50:28.882Z,4.63
2017-09-01T14:52:56.369Z,3.90
2017-09-01T14:55:23.859Z,5.10
2017-09-01T14:57:52.260Z,3.53
2017-09-01T15:00:19.762Z,4.00
2017-09-01T15:02:47.308Z,3.35
2017-09-01T15:05:14.809Z,4.22
2017-09-01T15:07:42.311Z,3.03
2017-09-01T15:10:09.795Z,3.58
2017-09-01T15:12:37.310Z,3.05
2017-09-01T15:15:05.190Z,2.77
2017-09-01T15:17:32.706Z,3.70
2017-09-01T15:20:00.198Z,3.50
2017-09-01T15:22:27.707Z,3.60
2017-09-01T15:24:55.270Z,7.27
2017-09-01T15:27:22.821Z,9.40
2017-09-01T15:29:50.283Z,4.10
2017-09-01T15:32:17.786Z,4.33
2017-09-01T15:34:45.260Z,3.72
2017-09-01T15:37:12.750Z,3.80
2017-09-01T15:39:41.216Z,3.90
2017-09-01T15:42:09.768Z,3.60
2017-09-01T15:44:37.313Z,3.70
2017-09-01T15:47:04.774Z,3.40
2017-09-01T15:49:32.290Z,4.13
2017-09-01T15:51:59.820Z,3.47
2017-09-01T15:54:27.346Z,3.20
2017-09-01T15:56:54.869Z,3.40
2017-09-01T15:59:22.341Z,4.27
2017-09-01T16:01:49.940Z,3.53
2017-09-01T16:04:17.421Z,2.80
2017-09-01T16:06:44.918Z,3.05
2017-09-01T16:09:12.394Z,3.37
2017-09-01T16:11:40.194Z,3.80
2017-09-01T16:14:07.721Z,3.50
2017-09-01T16:16:35.232Z,3.87
2017-09-01T16:19:02.757Z,4.57
2017-09-01T16:21:30.254Z,3.22
2017-09-01T16:23:57.757Z,3.17
2017-09-01T16:26:25.255Z,3.67
2017-09-01T16:28:52.781Z,3.70
2017-09-01T16:31:20.303Z,3.60
2017-09-01T16:36:21.603Z,4.27
2017-09-01T16:38:49.324Z,3.60
2017-09-01T16:41:17.187Z,3.67
2017-09-01T16:43:44.657Z,3.50
2017-09-01T16:46:12.282Z,3.07
2017-09-01T16:48:40.013Z,4.43
2017-09-01T16:51:07.613Z,3.90
2017-09-01T16:53:35.097Z,3.67
2017-09-01T16:56:02.615Z,4.53
2017-09-01T16:58:30.159Z,5.30
2017-09-01T17:00:57.631Z,11.47
2017-09-01T17:03:25.129Z,4.70
2017-09-01T17:05:52.615Z,4.83
2017-09-01T17:08:20.112Z,4.47
2017-09-01T17:10:47.601Z,3.60
2017-09-01T17:13:15.471Z,4.22
2017-09-01T17:15:42.941Z,3.73
2017-09-01T17:18:10.430Z,6.15
2017-09-01T17:20:37.913Z,4.80
2017-09-01T17:23:05.547Z,5.25
2017-09-01T17:25:33.059Z,4.73
2017-09-01T17:28:00.576Z,4.60
2017-09-01T17:30:28.989Z,5.10
2017-09-01T17:32:56.456Z,4.73
2017-09-01T17:35:23.965Z,4.77
2017-09-01T17:37:51.434Z,4.70
2017-09-01T17:40:18.966Z,4.32
2017-09-01T17:42:46.464Z,7.90
2017-09-01T17:45:13.941Z,4.90
2017-09-01T17:47:41.428Z,4.33
2017-09-01T17:50:08.925Z,4.20
2017-09-01T17:52:36.442Z,4.37
2017-09-01T17:55:03.901Z,5.33
2017-09-01T17:57:31.399Z,4.90
2017-09-01T17:59:58.863Z,5.37
2017-09-01T18:02:26.359Z,5.13
2017-09-01T18:04:53.877Z,5.40
2017-09-01T18:07:21.338Z,5.40
2017-09-01T18:09:48.951Z,5.07
2017-09-01T18:12:16.460Z,6.60
2017-09-01T18:14:44.001Z,5.17
2017-09-01T18:17:11.506Z,4.45
2017-09-01T18:19:38.983Z,4.60
2017-09-01T18:22:06.602Z,5.03
2017-09-01T18:24:34.082Z,5.13
2017-09-01T18:27:01.571Z,4.95
2017-09-01T18:29:29.060Z,3.80
2017-09-01T18:31:56.539Z,4.47
2017-09-01T18:34:24.188Z,3.60
2017-09-01T18:36:51.654Z,4.13
2017-09-01T18:39:19.134Z,4.10
2017-09-01T18:41:46.649Z,4.80
2017-09-01T18:44:14.114Z,5.53
2017-09-01T18:46:42.264Z,4.33
2017-09-01T18:49:11.502Z,5.48
2017-09-01T18:51:39.050Z,5.83
2017-09-01T18:54:06.537Z,5.47
2017-09-01T18:56:34.019Z,5.00
2017-09-01T18:59:01.535Z,5.93
2017-09-01T19:01:28.986Z,6.00
2017-09-01T19:03:56.482Z,4.80
2017-09-01T19:06:23.965Z,4.60
2017-09-01T19:08:51.444Z,4.40
2017-09-01T19:11:18.955Z,4.63
2017-09-01T19:13:46.458Z,4.43
2017-09-01T19:16:13.931Z,4.50
2017-09-01T19:18:41.422Z,4.70
2017-09-01T19:21:08.890Z,4.40
2017-09-01T19:23:36.364Z,4.23
2017-09-01T19:26:03.890Z,4.03
2017-09-01T19:28:31.368Z,4.20
2017-09-01T19:30:58.861Z,4.03
2017-09-01T19:33:26.330Z,4.87
2017-09-01T19:35:53.879Z,5.40
2017-09-01T19:38:21.447Z,4.43
2017-09-01T19:40:48.901Z,4.67
2017-09-01T19:43:16.408Z,4.25
2017-09-01T19:45:43.900Z,4.10
2017-09-01T19:48:11.414Z,4.05
2017-09-01T19:50:38.874Z,3.73
2017-09-01T19:53:06.376Z,4.27
2017-09-01T19:55:33.855Z,4.30
2017-09-01T19:58:01.377Z,5.03
2017-09-01T20:00:28.900Z,6.00
2017-09-01T20:02:56.353Z,5.17
2017-09-01T20:05:23.884Z,5.33
2017-09-01T20:07:51.435Z,4.63
2017-09-01T20:10:18.956Z,4.97
2017-09-01T20:12:46.442Z,4.03
2017-09-01T20:15:13.979Z,5.00
2017-09-01T20:17:41.494Z,4.85
2017-09-01T20:20:09.398Z,4.97
2017-09-01T20:22:36.858Z,4.70
2017-09-01T20:25:05.287Z,4.63
2017-09-01T20:27:32.781Z,5.30
2017-09-01T20:30:00.243Z,4.87
2017-09-01T20:32:27.763Z,4.07
2017-09-01T20:34:55.233Z,4.55
2017-09-01T20:37:22.839Z,4.03
2017-09-01T20:39:50.306Z,4.03
2017-09-01T20:42:17.789Z,4.18
2017-09-01T20:44:45.303Z,4.33
2017-09-01T20:47:12.800Z,4.40
2017-09-01T20:49:40.293Z,4.10
2017-09-01T20:52:07.801Z,3.87
2017-09-01T20:54:35.313Z,4.23
2017-09-01T20:57:02.776Z,4.40
2017-09-01T20:59:30.320Z,4.70
2017-09-01T21:01:57.915Z,4.50
2017-09-01T21:04:25.380Z,4.37
2017-09-01T21:06:52.892Z,4.00
2017-09-01T21:09:20.357Z,4.65
2017-09-01T21:11:47.864Z,4.13
2017-09-01T21:14:15.342Z,4.10
2017-09-01T21:16:43.203Z,3.62
2017-09-01T21:19:14.362Z,3.50
2017-09-01T21:21:41.841Z,4.20
2017-09-01T21:24:09.341Z,4.07
2017-09-01T21:26:36.805Z,4.20
2017-09-01T21:29:04.347Z,4.73
2017-09-01T21:31:31.836Z,4.80
2017-09-01T21:33:59.322Z,4.50
2017-09-01T21:36:26.793Z,4.68
2017-09-01T21:38:54.297Z,3.90
2017-09-01T21:41:21.793Z,4.95
2017-09-01T21:43:49.291Z,4.90
2017-09-01T21:46:16.763Z,4.90
2017-09-01T21:48:44.254Z,4.80
2017-09-01T21:51:11.784Z,4.90
2017-09-01T21:53:39.282Z,4.60
2017-09-01T21:56:06.908Z,4.33
2017-09-01T21:58:34.426Z,4.40
2017-09-01T22:01:13.587Z,3.90
2017-09-01T22:03:41.066Z,4.80
2017-09-01T22:06:08.599Z,4.73
2017-09-01T22:08:36.074Z,4.62
2017-09-01T22:11:03.593Z,5.03
2017-09-01T22:13:31.102Z,5.03
2017-09-01T22:15:58.635Z,4.77
2017-09-01T22:18:26.133Z,4.70
2017-09-01T22:20:53.645Z,4.70
2017-09-01T22:23:21.186Z,4.53
2017-09-01T22:25:48.687Z,4.70
2017-09-01T22:28:16.142Z,5.60
2017-09-01T22:30:43.634Z,4.60
2017-09-01T22:33:11.138Z,4.85
2017-09-01T22:35:38.639Z,4.70
2017-09-01T22:38:07.125Z,4.90
2017-09-01T22:40:34.639Z,4.33
2017-09-01T22:43:02.107Z,4.60
2017-09-01T22:45:30.470Z,5.03
2017-09-01T22:47:57.935Z,4.90
2017-09-01T22:50:25.410Z,5.20
2017-09-01T22:52:52.887Z,5.57
2017-09-01T22:55:20.962Z,5.20
2017-09-01T22:57:48.488Z,5.43
2017-09-01T23:00:27.746Z,5.53
2017-09-01T23:02:55.247Z,5.40
2017-09-01T23:05:22.721Z,5.30
2017-09-01T23:07:50.222Z,5.20
2017-09-01T23:10:17.722Z,6.25
2017-09-01T23:12:45.181Z,4.67
2017-09-01T23:15:12.664Z,4.40
2017-09-01T23:17:40.120Z,4.90
2017-09-01T23:20:07.611Z,4.40
2017-09-01T23:22:35.095Z,4.70
2017-09-01T23:25:03.133Z,4.53
2017-09-01T23:27:30.647Z,4.20
2017-09-01T23:29:58.713Z,4.60
2017-09-01T23:32:26.230Z,4.37
2017-09-01T23:34:53.736Z,4.90
2017-09-01T23:37:21.314Z,4.78
2017-09-01T23:39:49.679Z,4.45
2017-09-01T23:42:18.102Z,4.37
2017-09-01T23:44:45.582Z,4.50
2017-09-01T23:47:13.071Z,4.97
2017-09-01T23:49:40.543Z,4.80
2017-09-01T23:52:08.033Z,4.20
2017-09-01T23:54:35.496Z,3.87
2017-09-01T23:57:03.003Z,4.80
2017-09-01T23:59:30.473Z,4.65
